sensor_id;sensor_type;location;lat;lon;timestamp;pressure;altitude;pressure_sealevel;temperature;humidity
7335;BME280;3708;42.632;23.378;2023-05-23T00:02:12;94203.00;;;16.60;60.95
7335;BME280;3708;42.632;23.378;2023-05-23T00:04:39;94192.13;;;16.65;60.28
7335;BME280;3708;42.632;23.378;2023-05-23T00:07:09;94194.56;;;16.51;59.98
7335;BME280;3708;42.632;23.378;2023-05-23T00:09:36;94196.09;;;16.52;59.85
7335;BME280;3708;42.632;23.378;2023-05-23T00:12:03;94190.69;;;16.45;59.58
7335;BME280;3708;42.632;23.378;2023-05-23T00:14:30;94190.97;;;16.40;59.56
7335;BME280;3708;42.632;23.378;2023-05-23T00:16:58;94181.59;;;16.42;59.59
7335;BME280;3708;42.632;23.378;2023-05-23T00:19:27;94181.94;;;16.41;59.77
7335;BME280;3708;42.632;23.378;2023-05-23T00:21:54;94183.16;;;16.47;59.83
7335;BME280;3708;42.632;23.378;2023-05-23T00:24:23;94184.09;;;16.58;59.59
7335;BME280;3708;42.632;23.378;2023-05-23T00:26:50;94185.31;;;16.64;59.58
7335;BME280;3708;42.632;23.378;2023-05-23T00:29:16;94174.38;;;16.65;59.30
7335;BME280;3708;42.632;23.378;2023-05-23T00:31:44;94179.28;;;16.67;59.41
7335;BME280;3708;42.632;23.378;2023-05-23T00:34:11;94177.81;;;16.69;59.03
7335;BME280;3708;42.632;23.378;2023-05-23T00:36:39;94174.22;;;16.55;59.23
7335;BME280;3708;42.632;23.378;2023-05-23T00:39:08;94182.75;;;16.45;59.45
7335;BME280;3708;42.632;23.378;2023-05-23T00:41:43;94178.28;;;16.49;59.34
7335;BME280;3708;42.632;23.378;2023-05-23T00:44:10;94171.69;;;16.62;59.11
7335;BME280;3708;42.632;23.378;2023-05-23T00:46:37;94165.63;;;16.61;59.05
7335;BME280;3708;42.632;23.378;2023-05-23T00:49:04;94167.22;;;16.66;58.76
7335;BME280;3708;42.632;23.378;2023-05-23T00:51:32;94165.50;;;16.51;58.56
7335;BME280;3708;42.632;23.378;2023-05-23T00:54:00;94176.47;;;16.53;58.57
7335;BME280;3708;42.632;23.378;2023-05-23T00:56:27;94169.41;;;16.60;58.60
7335;BME280;3708;42.632;23.378;2023-05-23T00:58:55;94173.94;;;16.60;58.26
7335;BME280;3708;42.632;23.378;2023-05-23T01:01:22;94167.69;;;16.49;58.71
7335;BME280;3708;42.632;23.378;2023-05-23T01:03:50;94169.06;;;16.39;58.71
7335;BME280;3708;42.632;23.378;2023-05-23T01:06:17;94174.94;;;16.26;58.73
7335;BME280;3708;42.632;23.378;2023-05-23T01:08:43;94173.91;;;16.34;58.85
7335;BME280;3708;42.632;23.378;2023-05-23T01:11:19;94183.34;;;16.35;58.89
7335;BME280;3708;42.632;23.378;2023-05-23T01:13:57;94181.16;;;16.40;58.90
7335;BME280;3708;42.632;23.378;2023-05-23T01:16:31;94180.41;;;16.40;58.72
7335;BME280;3708;42.632;23.378;2023-05-23T01:19:13;94183.47;;;16.42;58.31
7335;BME280;3708;42.632;23.378;2023-05-23T01:21:51;94175.00;;;16.33;58.20
7335;BME280;3708;42.632;23.378;2023-05-23T01:24:33;94177.22;;;16.27;58.32
7335;BME280;3708;42.632;23.378;2023-05-23T01:27:18;94174.75;;;16.15;58.39
7335;BME280;3708;42.632;23.378;2023-05-23T01:29:53;94181.44;;;16.09;58.75
7335;BME280;3708;42.632;23.378;2023-05-23T01:32:24;94174.28;;;16.10;58.86
7335;BME280;3708;42.632;23.378;2023-05-23T01:34:52;94179.31;;;16.18;58.93
7335;BME280;3708;42.632;23.378;2023-05-23T01:37:19;94177.56;;;16.26;58.73
7335;BME280;3708;42.632;23.378;2023-05-23T01:39:46;94173.09;;;16.07;58.84
7335;BME280;3708;42.632;23.378;2023-05-23T01:42:13;94171.03;;;15.93;59.38
7335;BME280;3708;42.632;23.378;2023-05-23T01:44:40;94178.88;;;16.13;59.33
7335;BME280;3708;42.632;23.378;2023-05-23T01:47:09;94172.69;;;16.28;59.14
7335;BME280;3708;42.632;23.378;2023-05-23T01:49:37;94166.69;;;16.31;58.95
7335;BME280;3708;42.632;23.378;2023-05-23T01:52:05;94165.69;;;16.39;58.72
7335;BME280;3708;42.632;23.378;2023-05-23T01:54:36;94165.63;;;16.35;58.87
7335;BME280;3708;42.632;23.378;2023-05-23T01:57:04;94171.03;;;16.46;58.62
7335;BME280;3708;42.632;23.378;2023-05-23T01:59:31;94167.69;;;16.49;58.35
7335;BME280;3708;42.632;23.378;2023-05-23T02:01:58;94167.06;;;16.55;58.26
7335;BME280;3708;42.632;23.378;2023-05-23T02:04:45;94163.66;;;16.55;58.19
7335;BME280;3708;42.632;23.378;2023-05-23T02:07:12;94172.47;;;16.62;57.81
7335;BME280;3708;42.632;23.378;2023-05-23T02:09:39;94158.00;;;16.56;57.96
7335;BME280;3708;42.632;23.378;2023-05-23T02:12:06;94165.59;;;16.58;58.00
7335;BME280;3708;42.632;23.378;2023-05-23T02:14:33;94171.88;;;16.50;57.90
7335;BME280;3708;42.632;23.378;2023-05-23T02:17:01;94168.47;;;16.49;57.74
7335;BME280;3708;42.632;23.378;2023-05-23T02:19:28;94171.81;;;16.46;57.54
7335;BME280;3708;42.632;23.378;2023-05-23T02:21:56;94164.59;;;16.43;57.77
7335;BME280;3708;42.632;23.378;2023-05-23T02:24:23;94157.81;;;16.46;58.00
7335;BME280;3708;42.632;23.378;2023-05-23T02:26:50;94169.47;;;16.41;57.59
7335;BME280;3708;42.632;23.378;2023-05-23T02:29:17;94165.81;;;16.23;57.99
7335;BME280;3708;42.632;23.378;2023-05-23T02:31:44;94164.25;;;16.19;58.17
7335;BME280;3708;42.632;23.378;2023-05-23T02:34:11;94166.88;;;16.19;58.09
7335;BME280;3708;42.632;23.378;2023-05-23T02:36:38;94165.72;;;16.16;57.99
7335;BME280;3708;42.632;23.378;2023-05-23T02:39:06;94152.84;;;16.15;57.94
7335;BME280;3708;42.632;23.378;2023-05-23T02:41:33;94148.28;;;16.12;58.04
7335;BME280;3708;42.632;23.378;2023-05-23T02:44:01;94156.81;;;16.01;57.64
7335;BME280;3708;42.632;23.378;2023-05-23T02:46:28;94149.53;;;15.95;57.84
7335;BME280;3708;42.632;23.378;2023-05-23T02:48:55;94155.09;;;15.90;57.81
7335;BME280;3708;42.632;23.378;2023-05-23T02:51:22;94154.81;;;15.95;58.01
7335;BME280;3708;42.632;23.378;2023-05-23T02:53:48;94157.81;;;15.93;58.01
7335;BME280;3708;42.632;23.378;2023-05-23T02:56:17;94151.00;;;15.92;58.02
7335;BME280;3708;42.632;23.378;2023-05-23T02:58:44;94151.00;;;15.92;57.90
7335;BME280;3708;42.632;23.378;2023-05-23T03:01:11;94151.59;;;15.41;58.38
7335;BME280;3708;42.632;23.378;2023-05-23T03:03:38;94146.97;;;15.34;58.75
7335;BME280;3708;42.632;23.378;2023-05-23T03:06:06;94151.59;;;15.41;58.74
7335;BME280;3708;42.632;23.378;2023-05-23T03:08:35;94147.69;;;15.31;58.85
7335;BME280;3708;42.632;23.378;2023-05-23T03:11:01;94140.25;;;15.17;58.72
7335;BME280;3708;42.632;23.378;2023-05-23T03:13:30;94145.19;;;15.19;58.78
7335;BME280;3708;42.632;23.378;2023-05-23T03:15:56;94153.25;;;15.07;58.93
7335;BME280;3708;42.632;23.378;2023-05-23T03:18:23;94152.22;;;15.11;59.12
7335;BME280;3708;42.632;23.378;2023-05-23T03:20:50;94164.06;;;15.02;59.28
7335;BME280;3708;42.632;23.378;2023-05-23T03:23:17;94159.41;;;15.14;59.28
7335;BME280;3708;42.632;23.378;2023-05-23T03:25:44;94158.53;;;15.07;59.43
7335;BME280;3708;42.632;23.378;2023-05-23T03:28:11;94156.72;;;15.11;59.08
7335;BME280;3708;42.632;23.378;2023-05-23T03:30:39;94156.84;;;15.18;59.25
7335;BME280;3708;42.632;23.378;2023-05-23T03:33:06;94164.63;;;15.11;59.02
7335;BME280;3708;42.632;23.378;2023-05-23T03:35:33;94170.59;;;15.08;59.08
7335;BME280;3708;42.632;23.378;2023-05-23T03:38:00;94168.44;;;15.13;59.30
7335;BME280;3708;42.632;23.378;2023-05-23T03:40:27;94169.34;;;15.21;59.35
7335;BME280;3708;42.632;23.378;2023-05-23T03:43:01;94172.34;;;15.42;59.11
7335;BME280;3708;42.632;23.378;2023-05-23T03:45:29;94180.00;;;15.66;58.47
7335;BME280;3708;42.632;23.378;2023-05-23T03:47:57;94179.22;;;15.66;57.96
7335;BME280;3708;42.632;23.378;2023-05-23T03:50:24;94178.94;;;15.48;57.89
7335;BME280;3708;42.632;23.378;2023-05-23T03:52:51;94184.81;;;15.42;58.12
7335;BME280;3708;42.632;23.378;2023-05-23T03:55:19;94176.41;;;15.36;58.31
7335;BME280;3708;42.632;23.378;2023-05-23T03:57:48;94175.19;;;14.92;59.21
7335;BME280;3708;42.632;23.378;2023-05-23T04:00:15;94174.63;;;15.02;59.16
7335;BME280;3708;42.632;23.378;2023-05-23T04:02:43;94180.44;;;15.30;59.08
7335;BME280;3708;42.632;23.378;2023-05-23T04:05:11;94186.44;;;15.46;58.88
7335;BME280;3708;42.632;23.378;2023-05-23T04:07:38;94176.34;;;15.74;58.60
7335;BME280;3708;42.632;23.378;2023-05-23T04:10:07;94179.66;;;15.90;58.15
7335;BME280;3708;42.632;23.378;2023-05-23T04:12:34;94185.63;;;16.10;57.82
7335;BME280;3708;42.632;23.378;2023-05-23T04:15:01;94180.63;;;16.28;57.38
7335;BME280;3708;42.632;23.378;2023-05-23T04:17:28;94180.38;;;16.36;56.87
7335;BME280;3708;42.632;23.378;2023-05-23T04:19:55;94185.84;;;16.24;57.18
7335;BME280;3708;42.632;23.378;2023-05-23T04:22:24;94177.56;;;16.52;57.00
7335;BME280;3708;42.632;23.378;2023-05-23T04:24:50;94190.63;;;16.67;56.91
7335;BME280;3708;42.632;23.378;2023-05-23T04:27:17;94185.81;;;16.73;56.51
7335;BME280;3708;42.632;23.378;2023-05-23T04:29:44;94183.88;;;16.70;56.42
7335;BME280;3708;42.632;23.378;2023-05-23T04:32:11;94189.97;;;16.74;56.45
7335;BME280;3708;42.632;23.378;2023-05-23T04:34:39;94190.03;;;16.77;56.38
7335;BME280;3708;42.632;23.378;2023-05-23T04:37:06;94192.78;;;16.58;56.41
7335;BME280;3708;42.632;23.378;2023-05-23T04:39:35;94192.84;;;16.62;56.55
7335;BME280;3708;42.632;23.378;2023-05-23T04:42:02;94188.13;;;16.78;56.25
7335;BME280;3708;42.632;23.378;2023-05-23T04:44:31;94186.50;;;16.96;56.23
7335;BME280;3708;42.632;23.378;2023-05-23T04:46:58;94193.38;;;17.04;55.76
7335;BME280;3708;42.632;23.378;2023-05-23T04:49:27;94192.94;;;16.99;57.96
7335;BME280;3708;42.632;23.378;2023-05-23T04:51:54;94189.69;;;17.12;58.93
7335;BME280;3708;42.632;23.378;2023-05-23T04:54:20;94194.53;;;16.25;58.20
7335;BME280;3708;42.632;23.378;2023-05-23T04:56:49;94198.63;;;16.45;58.09
7335;BME280;3708;42.632;23.378;2023-05-23T04:59:15;94193.31;;;16.45;58.12
7335;BME280;3708;42.632;23.378;2023-05-23T05:01:42;94194.56;;;16.51;58.06
7335;BME280;3708;42.632;23.378;2023-05-23T05:04:09;94203.63;;;16.04;59.30
7335;BME280;3708;42.632;23.378;2023-05-23T05:06:36;94207.09;;;15.63;60.44
7335;BME280;3708;42.632;23.378;2023-05-23T05:09:03;94203.44;;;15.49;61.55
7335;BME280;3708;42.632;23.378;2023-05-23T05:11:29;94207.41;;;15.81;60.77
7335;BME280;3708;42.632;23.378;2023-05-23T05:13:57;94207.34;;;15.77;60.84
7335;BME280;3708;42.632;23.378;2023-05-23T05:16:24;94212.03;;;15.87;61.09
7335;BME280;3708;42.632;23.378;2023-05-23T05:18:51;94215.94;;;15.93;60.73
7335;BME280;3708;42.632;23.378;2023-05-23T05:21:18;94206.63;;;16.26;60.64
7335;BME280;3708;42.632;23.378;2023-05-23T05:23:45;94206.00;;;16.58;59.87
7335;BME280;3708;42.632;23.378;2023-05-23T05:26:12;94214.72;;;16.89;59.41
7335;BME280;3708;42.632;23.378;2023-05-23T05:28:38;94209.91;;;16.94;59.37
7335;BME280;3708;42.632;23.378;2023-05-23T05:31:07;94213.94;;;17.14;58.83
7335;BME280;3708;42.632;23.378;2023-05-23T05:33:34;94214.19;;;17.35;57.87
7335;BME280;3708;42.632;23.378;2023-05-23T05:36:02;94226.22;;;17.63;57.55
7335;BME280;3708;42.632;23.378;2023-05-23T05:38:29;94216.81;;;17.69;57.35
7335;BME280;3708;42.632;23.378;2023-05-23T05:40:55;94222.38;;;17.57;58.11
7335;BME280;3708;42.632;23.378;2023-05-23T05:43:22;94213.66;;;17.93;57.56
7335;BME280;3708;42.632;23.378;2023-05-23T05:45:49;94217.00;;;18.30;56.68
7335;BME280;3708;42.632;23.378;2023-05-23T05:48:17;94215.44;;;18.69;56.10
7335;BME280;3708;42.632;23.378;2023-05-23T05:50:44;94216.22;;;18.73;55.93
7335;BME280;3708;42.632;23.378;2023-05-23T05:53:12;94223.97;;;19.03;55.33
7335;BME280;3708;42.632;23.378;2023-05-23T05:55:39;94216.44;;;19.16;54.66
7335;BME280;3708;42.632;23.378;2023-05-23T05:58:06;94215.56;;;18.94;54.00
7335;BME280;3708;42.632;23.378;2023-05-23T06:00:33;94231.63;;;18.57;54.98
7335;BME280;3708;42.632;23.378;2023-05-23T06:03:06;94228.06;;;17.92;56.87
7335;BME280;3708;42.632;23.378;2023-05-23T06:05:35;94214.88;;;16.99;59.53
7335;BME280;3708;42.632;23.378;2023-05-23T06:08:04;94210.81;;;17.05;59.68
7335;BME280;3708;42.632;23.378;2023-05-23T06:10:33;94213.22;;;17.17;59.93
7335;BME280;3708;42.632;23.378;2023-05-23T06:13:02;94210.50;;;17.43;59.07
7335;BME280;3708;42.632;23.378;2023-05-23T06:15:29;94223.66;;;17.70;58.39
7335;BME280;3708;42.632;23.378;2023-05-23T06:17:56;94223.28;;;18.11;57.60
7335;BME280;3708;42.632;23.378;2023-05-23T06:20:23;94218.13;;;18.25;56.88
7335;BME280;3708;42.632;23.378;2023-05-23T06:22:51;94219.13;;;18.58;56.65
7335;BME280;3708;42.632;23.378;2023-05-23T06:25:18;94210.88;;;18.70;56.24
7335;BME280;3708;42.632;23.378;2023-05-23T06:27:44;94218.38;;;18.57;56.59
7335;BME280;3708;42.632;23.378;2023-05-23T06:30:15;94211.88;;;19.13;55.76
7335;BME280;3708;42.632;23.378;2023-05-23T06:32:42;94219.16;;;19.30;54.86
7335;BME280;3708;42.632;23.378;2023-05-23T06:35:08;94226.38;;;19.33;54.82
7335;BME280;3708;42.632;23.378;2023-05-23T06:37:35;94226.91;;;19.73;54.78
7335;BME280;3708;42.632;23.378;2023-05-23T06:40:06;94222.00;;;19.93;54.10
7335;BME280;3708;42.632;23.378;2023-05-23T06:42:34;94223.94;;;19.96;53.79
7335;BME280;3708;42.632;23.378;2023-05-23T06:45:00;94228.09;;;19.80;53.70
7335;BME280;3708;42.632;23.378;2023-05-23T06:47:27;94222.41;;;19.88;53.95
7335;BME280;3708;42.632;23.378;2023-05-23T06:49:54;94220.50;;;19.85;53.75
7335;BME280;3708;42.632;23.378;2023-05-23T06:52:21;94222.09;;;20.25;53.26
7335;BME280;3708;42.632;23.378;2023-05-23T06:54:47;94221.69;;;20.58;52.52
7335;BME280;3708;42.632;23.378;2023-05-23T06:57:16;94225.84;;;20.77;52.00
7335;BME280;3708;42.632;23.378;2023-05-23T06:59:43;94218.28;;;20.36;52.73
7335;BME280;3708;42.632;23.378;2023-05-23T07:02:09;94215.25;;;20.52;52.98
7335;BME280;3708;42.632;23.378;2023-05-23T07:04:40;94207.56;;;21.03;51.93
7335;BME280;3708;42.632;23.378;2023-05-23T07:07:06;94209.75;;;21.30;51.24
7335;BME280;3708;42.632;23.378;2023-05-23T07:09:33;94205.06;;;21.62;50.53
7335;BME280;3708;42.632;23.378;2023-05-23T07:12:00;94211.03;;;21.87;49.74
7335;BME280;3708;42.632;23.378;2023-05-23T07:14:28;94210.22;;;21.93;50.01
7335;BME280;3708;42.632;23.378;2023-05-23T07:16:55;94197.81;;;22.24;49.06
7335;BME280;3708;42.632;23.378;2023-05-23T07:19:22;94197.63;;;22.49;48.28
7335;BME280;3708;42.632;23.378;2023-05-23T07:21:49;94204.44;;;22.57;48.94
7335;BME280;3708;42.632;23.378;2023-05-23T07:24:15;94199.75;;;21.55;49.76
7335;BME280;3708;42.632;23.378;2023-05-23T07:26:42;94193.72;;;21.47;50.47
7335;BME280;3708;42.632;23.378;2023-05-23T07:29:09;94191.03;;;21.44;50.63
7335;BME280;3708;42.632;23.378;2023-05-23T07:31:37;94198.88;;;21.79;50.12
7335;BME280;3708;42.632;23.378;2023-05-23T07:34:04;94189.50;;;22.15;49.15
7335;BME280;3708;42.632;23.378;2023-05-23T07:36:31;94184.03;;;22.36;49.20
7335;BME280;3708;42.632;23.378;2023-05-23T07:39:00;94188.00;;;22.14;50.20
7335;BME280;3708;42.632;23.378;2023-05-23T07:41:26;94178.94;;;22.49;49.87
7335;BME280;3708;42.632;23.378;2023-05-23T07:43:53;94181.22;;;22.91;48.61
7335;BME280;3708;42.632;23.378;2023-05-23T07:46:20;94181.19;;;22.95;49.05
7335;BME280;3708;42.632;23.378;2023-05-23T07:48:48;94177.31;;;23.36;48.20
7335;BME280;3708;42.632;23.378;2023-05-23T07:51:15;94180.25;;;23.45;48.33
7335;BME280;3708;42.632;23.378;2023-05-23T07:53:44;94173.34;;;23.75;46.91
7335;BME280;3708;42.632;23.378;2023-05-23T07:56:11;94185.34;;;23.93;46.30
7335;BME280;3708;42.632;23.378;2023-05-23T07:58:38;94177.13;;;23.81;46.43
7335;BME280;3708;42.632;23.378;2023-05-23T08:01:05;94180.47;;;24.15;46.16
7335;BME280;3708;42.632;23.378;2023-05-23T08:03:32;94175.94;;;23.82;47.24
7335;BME280;3708;42.632;23.378;2023-05-23T08:06:00;94180.88;;;22.89;48.65
7335;BME280;3708;42.632;23.378;2023-05-23T08:08:27;94173.38;;;23.44;47.96
7335;BME280;3708;42.632;23.378;2023-05-23T08:10:54;94176.88;;;23.41;48.27
7335;BME280;3708;42.632;23.378;2023-05-23T08:13:21;94167.66;;;23.73;47.14
7335;BME280;3708;42.632;23.378;2023-05-23T08:15:47;94164.53;;;23.17;47.56
7335;BME280;3708;42.632;23.378;2023-05-23T08:18:14;94174.66;;;22.11;50.22
7335;BME280;3708;42.632;23.378;2023-05-23T08:20:42;94170.38;;;22.27;50.34
7335;BME280;3708;42.632;23.378;2023-05-23T08:23:10;94178.06;;;22.18;51.73
7335;BME280;3708;42.632;23.378;2023-05-23T08:25:38;94170.97;;;22.86;49.91
7335;BME280;3708;42.632;23.378;2023-05-23T08:28:05;94161.56;;;23.08;48.96
7335;BME280;3708;42.632;23.378;2023-05-23T08:30:32;94164.50;;;23.55;48.30
7335;BME280;3708;42.632;23.378;2023-05-23T08:32:59;94168.69;;;23.18;49.62
7335;BME280;3708;42.632;23.378;2023-05-23T08:35:29;94170.19;;;23.83;48.15
7335;BME280;3708;42.632;23.378;2023-05-23T08:37:59;94165.91;;;23.63;47.54
7335;BME280;3708;42.632;23.378;2023-05-23T08:40:29;94161.50;;;23.76;48.17
7335;BME280;3708;42.632;23.378;2023-05-23T08:43:00;94157.69;;;23.46;48.93
7335;BME280;3708;42.632;23.378;2023-05-23T08:45:27;94168.47;;;22.72;49.50
7335;BME280;3708;42.632;23.378;2023-05-23T08:47:55;94167.59;;;22.38;50.67
7335;BME280;3708;42.632;23.378;2023-05-23T08:50:27;94161.47;;;22.41;50.78
7335;BME280;3708;42.632;23.378;2023-05-23T08:52:56;94157.31;;;23.14;49.63
7335;BME280;3708;42.632;23.378;2023-05-23T08:55:24;94161.97;;;23.71;48.48
7335;BME280;3708;42.632;23.378;2023-05-23T08:57:53;94165.34;;;24.01;47.63
7335;BME280;3708;42.632;23.378;2023-05-23T09:00:21;94164.97;;;24.72;46.92
7335;BME280;3708;42.632;23.378;2023-05-23T09:02:48;94159.97;;;24.74;45.87
7335;BME280;3708;42.632;23.378;2023-05-23T09:05:14;94154.75;;;25.10;45.14
7335;BME280;3708;42.632;23.378;2023-05-23T09:07:42;94158.19;;;24.45;45.46
7335;BME280;3708;42.632;23.378;2023-05-23T09:10:09;94156.31;;;24.42;45.70
7335;BME280;3708;42.632;23.378;2023-05-23T09:12:36;94161.34;;;25.06;41.14
7335;BME280;3708;42.632;23.378;2023-05-23T09:15:06;94152.53;;;25.25;41.78
7335;BME280;3708;42.632;23.378;2023-05-23T09:17:34;94155.53;;;25.66;42.46
7335;BME280;3708;42.632;23.378;2023-05-23T09:20:02;94154.06;;;25.81;42.36
7335;BME280;3708;42.632;23.378;2023-05-23T09:22:30;94151.66;;;25.67;40.39
7335;BME280;3708;42.632;23.378;2023-05-23T09:24:57;94151.91;;;26.08;38.88
7335;BME280;3708;42.632;23.378;2023-05-23T09:27:24;94149.31;;;26.37;36.61
7335;BME280;3708;42.632;23.378;2023-05-23T09:29:51;94150.16;;;25.66;38.25
7335;BME280;3708;42.632;23.378;2023-05-23T09:32:19;94152.66;;;25.57;37.29
7335;BME280;3708;42.632;23.378;2023-05-23T09:34:54;94150.41;;;25.71;35.97
7335;BME280;3708;42.632;23.378;2023-05-23T09:37:21;94147.88;;;26.16;35.16
7335;BME280;3708;42.632;23.378;2023-05-23T09:39:48;94154.84;;;26.30;35.95
7335;BME280;3708;42.632;23.378;2023-05-23T09:42:19;94150.00;;;26.09;35.43
7335;BME280;3708;42.632;23.378;2023-05-23T09:44:47;94146.47;;;25.40;36.03
7335;BME280;3708;42.632;23.378;2023-05-23T09:47:14;94148.06;;;25.73;35.52
7335;BME280;3708;42.632;23.378;2023-05-23T09:49:45;94136.13;;;25.42;34.81
7335;BME280;3708;42.632;23.378;2023-05-23T09:52:12;94128.50;;;25.02;34.51
7335;BME280;3708;42.632;23.378;2023-05-23T09:54:39;94129.09;;;25.29;33.71
7335;BME280;3708;42.632;23.378;2023-05-23T09:57:08;94135.75;;;25.92;34.43
7335;BME280;3708;42.632;23.378;2023-05-23T09:59:39;94123.19;;;26.37;33.34
7335;BME280;3708;42.632;23.378;2023-05-23T10:02:07;94127.41;;;25.35;34.82
7335;BME280;3708;42.632;23.378;2023-05-23T10:04:38;94134.81;;;25.66;33.87
7335;BME280;3708;42.632;23.378;2023-05-23T10:07:12;94128.50;;;26.41;34.21
7335;BME280;3708;42.632;23.378;2023-05-23T10:09:42;94122.34;;;26.73;31.54
7335;BME280;3708;42.632;23.378;2023-05-23T10:12:39;94133.22;;;26.82;32.65
7335;BME280;3708;42.632;23.378;2023-05-23T10:15:08;94124.75;;;26.83;32.39
7335;BME280;3708;42.632;23.378;2023-05-23T10:17:39;94129.59;;;26.72;32.56
7335;BME280;3708;42.632;23.378;2023-05-23T10:20:10;94123.53;;;26.56;30.97
7335;BME280;3708;42.632;23.378;2023-05-23T10:22:42;94110.34;;;27.18;31.42
7335;BME280;3708;42.632;23.378;2023-05-23T10:25:09;94108.34;;;27.35;32.67
7335;BME280;3708;42.632;23.378;2023-05-23T10:27:36;94110.53;;;27.65;31.51
7335;BME280;3708;42.632;23.378;2023-05-23T10:30:05;94109.16;;;27.86;31.14
7335;BME280;3708;42.632;23.378;2023-05-23T10:32:33;94112.25;;;27.59;30.88
7335;BME280;3708;42.632;23.378;2023-05-23T10:35:06;94110.53;;;27.90;29.87
7335;BME280;3708;42.632;23.378;2023-05-23T10:37:38;94109.22;;;27.95;30.93
7335;BME280;3708;42.632;23.378;2023-05-23T10:40:15;94111.72;;;28.02;29.86
7335;BME280;3708;42.632;23.378;2023-05-23T10:42:51;94113.56;;;28.52;28.90
7335;BME280;3708;42.632;23.378;2023-05-23T10:45:22;94110.72;;;29.02;27.61
7335;BME280;3708;42.632;23.378;2023-05-23T10:47:50;94103.63;;;28.96;27.17
7335;BME280;3708;42.632;23.378;2023-05-23T10:50:30;94098.25;;;29.17;25.10
7335;BME280;3708;42.632;23.378;2023-05-23T10:52:59;94096.53;;;28.89;26.01
7335;BME280;3708;42.632;23.378;2023-05-23T10:55:30;94101.53;;;28.44;28.11
7335;BME280;3708;42.632;23.378;2023-05-23T10:58:14;94091.81;;;28.00;28.49
7335;BME280;3708;42.632;23.378;2023-05-23T11:00:50;94092.84;;;28.27;27.38
7335;BME280;3708;42.632;23.378;2023-05-23T11:03:17;94091.47;;;27.98;27.04
7335;BME280;3708;42.632;23.378;2023-05-23T11:05:47;94091.25;;;28.05;27.28
7335;BME280;3708;42.632;23.378;2023-05-23T11:08:19;94085.91;;;28.73;27.71
7335;BME280;3708;42.632;23.378;2023-05-23T11:10:55;94079.75;;;28.85;26.50
7335;BME280;3708;42.632;23.378;2023-05-23T11:13:55;94074.06;;;29.14;25.05
7335;BME280;3708;42.632;23.378;2023-05-23T11:16:26;94074.34;;;29.28;25.63
7335;BME280;3708;42.632;23.378;2023-05-23T11:19:20;94079.59;;;28.67;26.80
7335;BME280;3708;42.632;23.378;2023-05-23T11:21:52;94072.00;;;29.18;26.15
7335;BME280;3708;42.632;23.378;2023-05-23T11:24:20;94072.88;;;29.36;25.51
7335;BME280;3708;42.632;23.378;2023-05-23T11:26:53;94073.19;;;29.38;25.30
7335;BME280;3708;42.632;23.378;2023-05-23T11:29:25;94074.97;;;30.12;25.06
7335;BME280;3708;42.632;23.378;2023-05-23T11:31:53;94076.78;;;30.15;25.00
7335;BME280;3708;42.632;23.378;2023-05-23T11:34:20;94072.50;;;30.63;25.46
7335;BME280;3708;42.632;23.378;2023-05-23T11:36:51;94066.34;;;30.71;24.42
7335;BME280;3708;42.632;23.378;2023-05-23T11:39:18;94069.34;;;30.37;24.71
7335;BME280;3708;42.632;23.378;2023-05-23T11:41:53;94066.13;;;30.21;24.21
7335;BME280;3708;42.632;23.378;2023-05-23T11:44:25;94057.59;;;30.22;22.75
7335;BME280;3708;42.632;23.378;2023-05-23T11:46:59;94067.00;;;30.08;22.97
7335;BME280;3708;42.632;23.378;2023-05-23T11:49:28;94063.78;;;30.59;23.82
7335;BME280;3708;42.632;23.378;2023-05-23T11:51:54;94061.41;;;29.85;24.36
7335;BME280;3708;42.632;23.378;2023-05-23T11:54:22;94058.84;;;30.48;24.29
7335;BME280;3708;42.632;23.378;2023-05-23T11:56:49;94058.84;;;30.48;24.66
7335;BME280;3708;42.632;23.378;2023-05-23T11:59:16;94062.91;;;30.89;25.04
7335;BME280;3708;42.632;23.378;2023-05-23T12:01:44;94048.25;;;31.41;24.17
7335;BME280;3708;42.632;23.378;2023-05-23T12:04:11;94059.72;;;31.18;23.81
7335;BME280;3708;42.632;23.378;2023-05-23T12:06:38;94047.63;;;31.46;23.17
7335;BME280;3708;42.632;23.378;2023-05-23T12:09:06;94042.69;;;31.35;22.26
7335;BME280;3708;42.632;23.378;2023-05-23T12:11:34;94039.41;;;31.22;23.15
7335;BME280;3708;42.632;23.378;2023-05-23T12:14:01;94041.13;;;31.52;22.62
7335;BME280;3708;42.632;23.378;2023-05-23T12:16:30;94030.13;;;31.89;22.33
7335;BME280;3708;42.632;23.378;2023-05-23T12:18:59;94029.75;;;32.28;22.45
7335;BME280;3708;42.632;23.378;2023-05-23T12:21:39;94024.66;;;32.07;21.96
7335;BME280;3708;42.632;23.378;2023-05-23T12:24:12;94025.84;;;32.29;22.52
7335;BME280;3708;42.632;23.378;2023-05-23T12:26:50;94025.28;;;31.69;22.52
7335;BME280;3708;42.632;23.378;2023-05-23T12:29:18;94024.31;;;32.28;22.73
7335;BME280;3708;42.632;23.378;2023-05-23T12:31:50;94017.41;;;32.27;22.33
7335;BME280;3708;42.632;23.378;2023-05-23T12:34:19;94015.53;;;31.95;21.99
7335;BME280;3708;42.632;23.378;2023-05-23T12:36:46;94016.94;;;32.29;21.64
7335;BME280;3708;42.632;23.378;2023-05-23T12:39:14;94020.75;;;32.22;21.80
7335;BME280;3708;42.632;23.378;2023-05-23T12:41:41;94020.25;;;32.09;21.91
7335;BME280;3708;42.632;23.378;2023-05-23T12:44:10;94019.78;;;31.87;21.67
7335;BME280;3708;42.632;23.378;2023-05-23T12:46:40;94003.81;;;31.89;21.78
7335;BME280;3708;42.632;23.378;2023-05-23T12:49:07;94002.22;;;32.06;21.78
7335;BME280;3708;42.632;23.378;2023-05-23T12:51:35;94002.56;;;32.61;21.28
7335;BME280;3708;42.632;23.378;2023-05-23T12:54:03;93997.94;;;32.91;21.08
7335;BME280;3708;42.632;23.378;2023-05-23T12:56:30;93997.25;;;32.81;20.72
7335;BME280;3708;42.632;23.378;2023-05-23T12:58:56;93993.22;;;32.48;20.31
7335;BME280;3708;42.632;23.378;2023-05-23T13:01:23;93991.09;;;32.81;20.52
7335;BME280;3708;42.632;23.378;2023-05-23T13:03:50;93992.19;;;32.21;20.30
7335;BME280;3708;42.632;23.378;2023-05-23T13:06:17;93986.72;;;32.45;20.07
7335;BME280;3708;42.632;23.378;2023-05-23T13:08:45;93983.16;;;33.06;19.73
7335;BME280;3708;42.632;23.378;2023-05-23T13:11:13;93985.63;;;33.68;19.85
7335;BME280;3708;42.632;23.378;2023-05-23T13:13:40;93987.91;;;34.30;18.29
7335;BME280;3708;42.632;23.378;2023-05-23T13:16:07;93982.22;;;33.10;19.08
7335;BME280;3708;42.632;23.378;2023-05-23T13:18:34;93986.69;;;32.98;18.63